sensor_id;sensor_type;location;lat;lon;timestamp;P1;durP1;ratioP1;P2;durP2;ratioP2
74900;SDS011;63461;51.416;6.758;2024-02-21T00:01:01;28.63;;;9.53;;
74900;SDS011;63461;51.416;6.758;2024-02-21T00:03:27;29.37;;;9.40;;
74900;SDS011;63461;51.416;6.758;2024-02-21T00:05:53;32.10;;;10.23;;
74900;SDS011;63461;51.416;6.758;2024-02-21T00:08:21;31.27;;;10.20;;
74900;SDS011;63461;51.416;6.758;2024-02-21T00:10:47;34.73;;;10.27;;
74900;SDS011;63461;51.416;6.758;2024-02-21T00:13:12;31.93;;;10.30;;
74900;SDS011;63461;51.416;6.758;2024-02-21T00:15:38;42.10;;;10.93;;
74900;SDS011;63461;51.416;6.758;2024-02-21T00:18:04;31.73;;;11.00;;
74900;SDS011;63461;51.416;6.758;2024-02-21T00:20:30;31.63;;;10.93;;
74900;SDS011;63461;51.416;6.758;2024-02-21T00:22:56;33.67;;;9.97;;
74900;SDS011;63461;51.416;6.758;2024-02-21T00:25:22;29.50;;;10.37;;
74900;SDS011;63461;51.416;6.758;2024-02-21T00:27:48;30.67;;;9.77;;
74900;SDS011;63461;51.416;6.758;2024-02-21T00:30:14;29.03;;;10.57;;
74900;SDS011;63461;51.416;6.758;2024-02-21T00:32:40;35.53;;;10.87;;
74900;SDS011;63461;51.416;6.758;2024-02-21T00:35:05;30.60;;;10.13;;
74900;SDS011;63461;51.416;6.758;2024-02-21T00:37:31;34.37;;;10.73;;
74900;SDS011;63461;51.416;6.758;2024-02-21T00:39:57;34.00;;;9.97;;
74900;SDS011;63461;51.416;6.758;2024-02-21T00:42:23;31.30;;;10.13;;
74900;SDS011;63461;51.416;6.758;2024-02-21T00:44:49;27.67;;;9.40;;
74900;SDS011;63461;51.416;6.758;2024-02-21T00:47:15;31.90;;;10.70;;
74900;SDS011;63461;51.416;6.758;2024-02-21T00:49:40;30.10;;;10.53;;
74900;SDS011;63461;51.416;6.758;2024-02-21T00:52:06;30.57;;;9.97;;
74900;SDS011;63461;51.416;6.758;2024-02-21T00:54:32;30.07;;;10.17;;
74900;SDS011;63461;51.416;6.758;2024-02-21T00:56:58;31.97;;;10.67;;
74900;SDS011;63461;51.416;6.758;2024-02-21T00:59:24;28.63;;;10.13;;
74900;SDS011;63461;51.416;6.758;2024-02-21T01:01:49;31.57;;;10.83;;
74900;SDS011;63461;51.416;6.758;2024-02-21T01:04:15;31.30;;;10.53;;
74900;SDS011;63461;51.416;6.758;2024-02-21T01:06:41;31.50;;;10.00;;
74900;SDS011;63461;51.416;6.758;2024-02-21T01:09:09;30.33;;;11.10;;
74900;SDS011;63461;51.416;6.758;2024-02-21T01:11:38;28.47;;;9.60;;
74900;SDS011;63461;51.416;6.758;2024-02-21T01:14:04;27.97;;;10.10;;
74900;SDS011;63461;51.416;6.758;2024-02-21T01:16:29;34.17;;;10.47;;
74900;SDS011;63461;51.416;6.758;2024-02-21T01:18:55;26.47;;;9.50;;
74900;SDS011;63461;51.416;6.758;2024-02-21T01:21:21;30.07;;;9.77;;
74900;SDS011;63461;51.416;6.758;2024-02-21T01:23:47;36.13;;;9.93;;
74900;SDS011;63461;51.416;6.758;2024-02-21T01:26:13;35.00;;;10.23;;
74900;SDS011;63461;51.416;6.758;2024-02-21T01:28:40;28.63;;;9.47;;
74900;SDS011;63461;51.416;6.758;2024-02-21T01:31:07;29.43;;;9.43;;
74900;SDS011;63461;51.416;6.758;2024-02-21T01:33:33;30.07;;;10.23;;
74900;SDS011;63461;51.416;6.758;2024-02-21T01:36:03;28.90;;;9.63;;
74900;SDS011;63461;51.416;6.758;2024-02-21T01:38:31;27.13;;;9.60;;
74900;SDS011;63461;51.416;6.758;2024-02-21T01:40:58;25.53;;;8.63;;
74900;SDS011;63461;51.416;6.758;2024-02-21T01:43:24;36.10;;;9.67;;
74900;SDS011;63461;51.416;6.758;2024-02-21T01:45:50;34.17;;;9.63;;
74900;SDS011;63461;51.416;6.758;2024-02-21T01:48:23;24.07;;;8.63;;
74900;SDS011;63461;51.416;6.758;2024-02-21T01:50:50;27.57;;;8.47;;
74900;SDS011;63461;51.416;6.758;2024-02-21T01:53:18;25.80;;;8.83;;
74900;SDS011;63461;51.416;6.758;2024-02-21T01:55:46;21.33;;;7.63;;
74900;SDS011;63461;51.416;6.758;2024-02-21T01:58:16;23.60;;;8.93;;
74900;SDS011;63461;51.416;6.758;2024-02-21T02:00:44;29.43;;;8.70;;
74900;SDS011;63461;51.416;6.758;2024-02-21T02:03:12;28.37;;;9.20;;
74900;SDS011;63461;51.416;6.758;2024-02-21T02:08:11;25.80;;;8.10;;
74900;SDS011;63461;51.416;6.758;2024-02-21T02:10:41;28.10;;;8.40;;
74900;SDS011;63461;51.416;6.758;2024-02-21T02:13:07;26.87;;;9.00;;
74900;SDS011;63461;51.416;6.758;2024-02-21T02:18:10;32.80;;;10.07;;
74900;SDS011;63461;51.416;6.758;2024-02-21T02:20:37;26.30;;;9.07;;
74900;SDS011;63461;51.416;6.758;2024-02-21T02:23:10;31.40;;;10.77;;
74900;SDS011;63461;51.416;6.758;2024-02-21T02:25:36;31.43;;;10.00;;
74900;SDS011;63461;51.416;6.758;2024-02-21T02:28:04;27.37;;;10.30;;
74900;SDS011;63461;51.416;6.758;2024-02-21T02:30:34;30.83;;;10.43;;
74900;SDS011;63461;51.416;6.758;2024-02-21T02:33:04;27.50;;;10.07;;
74900;SDS011;63461;51.416;6.758;2024-02-21T02:35:30;32.67;;;10.07;;
74900;SDS011;63461;51.416;6.758;2024-02-21T02:37:56;29.37;;;9.67;;
74900;SDS011;63461;51.416;6.758;2024-02-21T02:40:23;31.07;;;10.97;;
74900;SDS011;63461;51.416;6.758;2024-02-21T02:42:49;31.00;;;10.60;;
74900;SDS011;63461;51.416;6.758;2024-02-21T02:45:16;31.53;;;9.47;;
74900;SDS011;63461;51.416;6.758;2024-02-21T02:47:43;29.03;;;9.30;;
74900;SDS011;63461;51.416;6.758;2024-02-21T02:50:10;26.97;;;9.27;;
74900;SDS011;63461;51.416;6.758;2024-02-21T02:52:36;25.40;;;9.30;;
74900;SDS011;63461;51.416;6.758;2024-02-21T02:55:03;38.97;;;10.30;;
74900;SDS011;63461;51.416;6.758;2024-02-21T02:57:30;30.40;;;9.47;;
74900;SDS011;63461;51.416;6.758;2024-02-21T02:59:56;31.90;;;10.20;;
74900;SDS011;63461;51.416;6.758;2024-02-21T03:02:22;41.30;;;11.40;;
74900;SDS011;63461;51.416;6.758;2024-02-21T03:04:48;26.53;;;10.97;;
74900;SDS011;63461;51.416;6.758;2024-02-21T03:07:14;29.87;;;11.20;;
74900;SDS011;63461;51.416;6.758;2024-02-21T03:09:40;32.70;;;10.17;;
74900;SDS011;63461;51.416;6.758;2024-02-21T03:12:08;28.37;;;10.77;;
74900;SDS011;63461;51.416;6.758;2024-02-21T03:14:34;29.53;;;10.53;;
74900;SDS011;63461;51.416;6.758;2024-02-21T03:17:00;27.93;;;9.77;;
74900;SDS011;63461;51.416;6.758;2024-02-21T03:19:27;32.40;;;11.40;;
74900;SDS011;63461;51.416;6.758;2024-02-21T03:21:53;33.70;;;11.13;;
74900;SDS011;63461;51.416;6.758;2024-02-21T03:24:20;34.03;;;11.70;;
74900;SDS011;63461;51.416;6.758;2024-02-21T03:26:46;32.27;;;11.67;;
74900;SDS011;63461;51.416;6.758;2024-02-21T03:29:14;36.80;;;13.23;;
74900;SDS011;63461;51.416;6.758;2024-02-21T03:31:40;30.67;;;11.77;;
74900;SDS011;63461;51.416;6.758;2024-02-21T03:34:06;30.80;;;11.00;;
74900;SDS011;63461;51.416;6.758;2024-02-21T03:36:31;35.40;;;11.53;;
74900;SDS011;63461;51.416;6.758;2024-02-21T03:38:57;32.93;;;11.57;;
74900;SDS011;63461;51.416;6.758;2024-02-21T03:41:23;29.37;;;11.80;;
74900;SDS011;63461;51.416;6.758;2024-02-21T03:43:49;34.90;;;12.47;;
74900;SDS011;63461;51.416;6.758;2024-02-21T03:46:15;31.97;;;12.00;;
74900;SDS011;63461;51.416;6.758;2024-02-21T03:48:41;36.03;;;11.13;;
74900;SDS011;63461;51.416;6.758;2024-02-21T03:51:07;37.87;;;11.77;;
74900;SDS011;63461;51.416;6.758;2024-02-21T03:53:33;44.27;;;15.73;;
74900;SDS011;63461;51.416;6.758;2024-02-21T03:56:01;37.63;;;14.40;;
74900;SDS011;63461;51.416;6.758;2024-02-21T03:58:29;34.17;;;13.03;;
74900;SDS011;63461;51.416;6.758;2024-02-21T04:00:56;43.47;;;11.03;;
74900;SDS011;63461;51.416;6.758;2024-02-21T04:03:22;32.03;;;10.63;;
74900;SDS011;63461;51.416;6.758;2024-02-21T04:05:47;34.07;;;10.90;;
74900;SDS011;63461;51.416;6.758;2024-02-21T04:08:13;31.13;;;10.43;;
74900;SDS011;63461;51.416;6.758;2024-02-21T04:10:39;29.47;;;9.90;;
74900;SDS011;63461;51.416;6.758;2024-02-21T04:13:08;30.17;;;8.40;;
74900;SDS011;63461;51.416;6.758;2024-02-21T04:15:34;25.33;;;8.53;;
74900;SDS011;63461;51.416;6.758;2024-02-21T04:18:00;22.13;;;8.57;;
74900;SDS011;63461;51.416;6.758;2024-02-21T04:20:28;26.93;;;9.00;;
74900;SDS011;63461;51.416;6.758;2024-02-21T04:22:55;23.20;;;8.77;;
74900;SDS011;63461;51.416;6.758;2024-02-21T04:25:21;27.77;;;8.97;;
74900;SDS011;63461;51.416;6.758;2024-02-21T04:27:47;23.93;;;8.97;;
74900;SDS011;63461;51.416;6.758;2024-02-21T04:30:13;27.70;;;9.40;;
74900;SDS011;63461;51.416;6.758;2024-02-21T04:32:39;24.37;;;9.50;;
74900;SDS011;63461;51.416;6.758;2024-02-21T04:35:08;26.40;;;9.93;;
74900;SDS011;63461;51.416;6.758;2024-02-21T04:37:34;30.50;;;9.47;;
74900;SDS011;63461;51.416;6.758;2024-02-21T04:40:00;24.90;;;9.33;;
74900;SDS011;63461;51.416;6.758;2024-02-21T04:42:26;28.57;;;9.57;;
74900;SDS011;63461;51.416;6.758;2024-02-21T04:44:52;29.50;;;8.97;;
74900;SDS011;63461;51.416;6.758;2024-02-21T04:47:18;28.80;;;8.33;;
74900;SDS011;63461;51.416;6.758;2024-02-21T04:49:45;25.53;;;8.60;;
74900;SDS011;63461;51.416;6.758;2024-02-21T04:52:11;26.63;;;8.13;;
74900;SDS011;63461;51.416;6.758;2024-02-21T04:54:37;23.60;;;8.47;;
74900;SDS011;63461;51.416;6.758;2024-02-21T04:57:04;26.97;;;8.73;;
74900;SDS011;63461;51.416;6.758;2024-02-21T04:59:30;21.80;;;7.97;;
74900;SDS011;63461;51.416;6.758;2024-02-21T05:01:56;26.75;;;9.77;;
74900;SDS011;63461;51.416;6.758;2024-02-21T05:04:21;26.80;;;8.27;;
74900;SDS011;63461;51.416;6.758;2024-02-21T05:06:47;18.77;;;6.83;;
74900;SDS011;63461;51.416;6.758;2024-02-21T05:09:13;20.97;;;6.97;;
74900;SDS011;63461;51.416;6.758;2024-02-21T05:11:39;19.10;;;6.60;;
74900;SDS011;63461;51.416;6.758;2024-02-21T05:14:05;16.10;;;6.70;;
74900;SDS011;63461;51.416;6.758;2024-02-21T05:16:32;28.33;;;7.93;;
74900;SDS011;63461;51.416;6.758;2024-02-21T05:18:57;23.70;;;7.63;;
74900;SDS011;63461;51.416;6.758;2024-02-21T05:21:23;20.50;;;6.33;;
74900;SDS011;63461;51.416;6.758;2024-02-21T05:23:50;24.73;;;7.70;;
74900;SDS011;63461;51.416;6.758;2024-02-21T05:26:25;23.87;;;7.10;;
74900;SDS011;63461;51.416;6.758;2024-02-21T05:28:52;17.67;;;6.10;;
74900;SDS011;63461;51.416;6.758;2024-02-21T05:31:18;21.50;;;6.43;;
74900;SDS011;63461;51.416;6.758;2024-02-21T05:33:45;21.70;;;6.90;;
74900;SDS011;63461;51.416;6.758;2024-02-21T05:36:14;24.57;;;6.90;;
74900;SDS011;63461;51.416;6.758;2024-02-21T05:38:40;19.00;;;6.07;;
74900;SDS011;63461;51.416;6.758;2024-02-21T05:41:06;21.47;;;6.63;;
74900;SDS011;63461;51.416;6.758;2024-02-21T05:43:32;15.30;;;6.00;;
74900;SDS011;63461;51.416;6.758;2024-02-21T05:45:58;21.30;;;6.10;;
74900;SDS011;63461;51.416;6.758;2024-02-21T05:48:26;18.57;;;6.17;;
74900;SDS011;63461;51.416;6.758;2024-02-21T05:50:52;16.97;;;6.47;;
74900;SDS011;63461;51.416;6.758;2024-02-21T05:53:18;21.00;;;6.20;;
74900;SDS011;63461;51.416;6.758;2024-02-21T05:55:44;21.30;;;6.70;;
74900;SDS011;63461;51.416;6.758;2024-02-21T05:58:09;16.80;;;5.80;;
74900;SDS011;63461;51.416;6.758;2024-02-21T06:00:39;22.73;;;5.87;;
74900;SDS011;63461;51.416;6.758;2024-02-21T06:03:05;19.90;;;6.20;;
74900;SDS011;63461;51.416;6.758;2024-02-21T06:05:31;23.40;;;6.07;;
74900;SDS011;63461;51.416;6.758;2024-02-21T06:08:01;14.00;;;5.30;;
74900;SDS011;63461;51.416;6.758;2024-02-21T06:10:26;18.80;;;5.97;;
74900;SDS011;63461;51.416;6.758;2024-02-21T06:12:52;17.20;;;5.40;;
74900;SDS011;63461;51.416;6.758;2024-02-21T06:15:18;19.03;;;6.23;;
74900;SDS011;63461;51.416;6.758;2024-02-21T06:17:44;21.60;;;6.17;;
74900;SDS011;63461;51.416;6.758;2024-02-21T06:20:09;17.93;;;6.00;;
74900;SDS011;63461;51.416;6.758;2024-02-21T06:22:36;18.57;;;5.37;;
74900;SDS011;63461;51.416;6.758;2024-02-21T06:25:01;16.90;;;6.20;;
74900;SDS011;63461;51.416;6.758;2024-02-21T06:27:28;17.23;;;5.60;;
74900;SDS011;63461;51.416;6.758;2024-02-21T06:29:53;16.83;;;5.73;;
74900;SDS011;63461;51.416;6.758;2024-02-21T06:32:19;11.87;;;5.00;;
74900;SDS011;63461;51.416;6.758;2024-02-21T06:34:45;16.67;;;6.03;;
74900;SDS011;63461;51.416;6.758;2024-02-21T06:37:11;13.67;;;5.87;;
74900;SDS011;63461;51.416;6.758;2024-02-21T06:39:37;17.30;;;5.53;;
74900;SDS011;63461;51.416;6.758;2024-02-21T06:42:04;15.03;;;5.23;;
74900;SDS011;63461;51.416;6.758;2024-02-21T06:44:30;16.80;;;5.17;;
74900;SDS011;63461;51.416;6.758;2024-02-21T06:46:57;16.80;;;5.47;;
74900;SDS011;63461;51.416;6.758;2024-02-21T06:49:24;24.00;;;5.40;;
74900;SDS011;63461;51.416;6.758;2024-02-21T06:51:49;19.17;;;5.60;;
74900;SDS011;63461;51.416;6.758;2024-02-21T06:54:15;20.00;;;5.73;;
74900;SDS011;63461;51.416;6.758;2024-02-21T06:56:41;20.03;;;5.83;;
74900;SDS011;63461;51.416;6.758;2024-02-21T06:59:07;18.87;;;5.93;;
74900;SDS011;63461;51.416;6.758;2024-02-21T07:01:32;15.83;;;5.20;;
74900;SDS011;63461;51.416;6.758;2024-02-21T07:03:58;17.67;;;5.57;;
74900;SDS011;63461;51.416;6.758;2024-02-21T07:06:24;14.77;;;5.20;;
74900;SDS011;63461;51.416;6.758;2024-02-21T07:08:50;19.77;;;5.00;;
74900;SDS011;63461;51.416;6.758;2024-02-21T07:11:16;17.13;;;4.80;;
74900;SDS011;63461;51.416;6.758;2024-02-21T07:13:42;16.67;;;5.57;;
74900;SDS011;63461;51.416;6.758;2024-02-21T07:16:08;13.83;;;4.77;;
74900;SDS011;63461;51.416;6.758;2024-02-21T07:18:34;18.10;;;5.57;;
74900;SDS011;63461;51.416;6.758;2024-02-21T07:21:00;18.73;;;5.40;;
74900;SDS011;63461;51.416;6.758;2024-02-21T07:23:26;14.33;;;5.30;;
74900;SDS011;63461;51.416;6.758;2024-02-21T07:25:51;20.20;;;4.67;;
74900;SDS011;63461;51.416;6.758;2024-02-21T07:28:17;18.63;;;4.83;;
74900;SDS011;63461;51.416;6.758;2024-02-21T07:30:43;16.37;;;5.20;;
74900;SDS011;63461;51.416;6.758;2024-02-21T07:33:09;16.93;;;5.93;;
74900;SDS011;63461;51.416;6.758;2024-02-21T07:35:35;18.80;;;5.00;;
74900;SDS011;63461;51.416;6.758;2024-02-21T07:38:06;15.97;;;5.23;;
74900;SDS011;63461;51.416;6.758;2024-02-21T07:40:32;14.03;;;5.50;;
74900;SDS011;63461;51.416;6.758;2024-02-21T07:42:58;17.90;;;5.13;;
74900;SDS011;63461;51.416;6.758;2024-02-21T07:45:24;15.10;;;5.30;;
74900;SDS011;63461;51.416;6.758;2024-02-21T07:47:50;15.87;;;5.17;;
74900;SDS011;63461;51.416;6.758;2024-02-21T07:50:16;24.53;;;6.07;;
74900;SDS011;63461;51.416;6.758;2024-02-21T07:52:42;18.53;;;5.07;;
74900;SDS011;63461;51.416;6.758;2024-02-21T07:55:08;18.50;;;6.57;;
74900;SDS011;63461;51.416;6.758;2024-02-21T07:57:36;16.53;;;5.77;;
74900;SDS011;63461;51.416;6.758;2024-02-21T08:00:02;17.27;;;6.03;;
74900;SDS011;63461;51.416;6.758;2024-02-21T08:02:37;23.53;;;6.20;;
74900;SDS011;63461;51.416;6.758;2024-02-21T08:05:03;18.03;;;5.67;;
74900;SDS011;63461;51.416;6.758;2024-02-21T08:07:29;21.47;;;7.07;;
74900;SDS011;63461;51.416;6.758;2024-02-21T08:09:56;17.00;;;5.93;;
74900;SDS011;63461;51.416;6.758;2024-02-21T08:12:22;17.63;;;5.30;;
74900;SDS011;63461;51.416;6.758;2024-02-21T08:14:47;14.63;;;4.50;;
74900;SDS011;63461;51.416;6.758;2024-02-21T08:17:13;15.43;;;4.30;;
74900;SDS011;63461;51.416;6.758;2024-02-21T08:19:39;13.83;;;4.30;;
74900;SDS011;63461;51.416;6.758;2024-02-21T08:22:05;15.23;;;4.23;;
74900;SDS011;63461;51.416;6.758;2024-02-21T08:24:32;17.30;;;4.63;;
74900;SDS011;63461;51.416;6.758;2024-02-21T08:26:57;14.57;;;4.03;;
74900;SDS011;63461;51.416;6.758;2024-02-21T08:29:26;17.57;;;5.00;;
74900;SDS011;63461;51.416;6.758;2024-02-21T08:31:53;16.00;;;4.87;;
74900;SDS011;63461;51.416;6.758;2024-02-21T08:34:18;16.00;;;4.70;;
74900;SDS011;63461;51.416;6.758;2024-02-21T08:36:44;17.40;;;4.87;;
74900;SDS011;63461;51.416;6.758;2024-02-21T08:39:10;15.87;;;5.03;;
74900;SDS011;63461;51.416;6.758;2024-02-21T08:41:36;18.57;;;5.23;;
74900;SDS011;63461;51.416;6.758;2024-02-21T08:44:02;15.13;;;4.67;;
74900;SDS011;63461;51.416;6.758;2024-02-21T08:46:28;18.40;;;6.20;;
74900;SDS011;63461;51.416;6.758;2024-02-21T08:48:54;24.73;;;7.27;;
74900;SDS011;63461;51.416;6.758;2024-02-21T08:51:20;17.63;;;4.20;;
74900;SDS011;63461;51.416;6.758;2024-02-21T08:53:46;18.83;;;5.63;;
74900;SDS011;63461;51.416;6.758;2024-02-21T08:56:13;22.33;;;5.63;;
74900;SDS011;63461;51.416;6.758;2024-02-21T08:58:39;12.40;;;4.47;;
74900;SDS011;63461;51.416;6.758;2024-02-21T09:01:05;18.17;;;4.97;;
74900;SDS011;63461;51.416;6.758;2024-02-21T09:03:38;17.90;;;4.90;;
74900;SDS011;63461;51.416;6.758;2024-02-21T09:06:07;17.27;;;6.33;;
74900;SDS011;63461;51.416;6.758;2024-02-21T09:08:35;20.27;;;6.03;;
74900;SDS011;63461;51.416;6.758;2024-02-21T09:11:01;23.07;;;5.83;;
74900;SDS011;63461;51.416;6.758;2024-02-21T09:13:27;18.33;;;5.40;;
74900;SDS011;63461;51.416;6.758;2024-02-21T09:15:53;11.37;;;4.17;;
74900;SDS011;63461;51.416;6.758;2024-02-21T09:18:19;12.27;;;3.77;;
74900;SDS011;63461;51.416;6.758;2024-02-21T09:20:45;13.43;;;4.40;;
74900;SDS011;63461;51.416;6.758;2024-02-21T09:23:11;13.20;;;4.00;;
74900;SDS011;63461;51.416;6.758;2024-02-21T09:25:37;13.30;;;4.37;;
74900;SDS011;63461;51.416;6.758;2024-02-21T09:28:03;18.27;;;5.13;;
74900;SDS011;63461;51.416;6.758;2024-02-21T09:30:31;12.37;;;3.90;;
74900;SDS011;63461;51.416;6.758;2024-02-21T09:32:57;13.60;;;3.50;;
74900;SDS011;63461;51.416;6.758;2024-02-21T09:35:25;11.47;;;3.43;;
74900;SDS011;63461;51.416;6.758;2024-02-21T09:37:53;12.33;;;3.40;;
74900;SDS011;63461;51.416;6.758;2024-02-21T09:40:19;11.83;;;3.70;;
74900;SDS011;63461;51.416;6.758;2024-02-21T09:42:46;14.20;;;3.57;;
74900;SDS011;63461;51.416;6.758;2024-02-21T09:45:15;12.03;;;3.70;;
74900;SDS011;63461;51.416;6.758;2024-02-21T09:47:56;13.67;;;4.07;;
74900;SDS011;63461;51.416;6.758;2024-02-21T09:50:44;8.23;;;2.67;;
74900;SDS011;63461;51.416;6.758;2024-02-21T09:53:12;12.53;;;3.80;;
74900;SDS011;63461;51.416;6.758;2024-02-21T09:55:39;12.90;;;3.53;;
74900;SDS011;63461;51.416;6.758;2024-02-21T09:58:07;11.37;;;3.17;;
74900;SDS011;63461;51.416;6.758;2024-02-21T10:00:35;6.63;;;2.90;;
74900;SDS011;63461;51.416;6.758;2024-02-21T10:03:01;12.47;;;3.20;;
74900;SDS011;63461;51.416;6.758;2024-02-21T10:05:33;8.27;;;2.83;;
74900;SDS011;63461;51.416;6.758;2024-02-21T10:08:03;10.10;;;3.30;;
74900;SDS011;63461;51.416;6.758;2024-02-21T10:10:29;12.77;;;3.00;;
74900;SDS011;63461;51.416;6.758;2024-02-21T10:12:56;9.70;;;3.17;;
74900;SDS011;63461;51.416;6.758;2024-02-21T10:15:23;8.90;;;3.13;;
74900;SDS011;63461;51.416;6.758;2024-02-21T10:17:59;9.70;;;2.87;;
74900;SDS011;63461;51.416;6.758;2024-02-21T10:20:26;12.80;;;2.80;;
74900;SDS011;63461;51.416;6.758;2024-02-21T10:23:05;12.23;;;2.90;;
74900;SDS011;63461;51.416;6.758;2024-02-21T10:25:35;11.60;;;3.07;;
74900;SDS011;63461;51.416;6.758;2024-02-21T10:28:03;7.07;;;2.50;;
74900;SDS011;63461;51.416;6.758;2024-02-21T10:30:29;6.40;;;2.60;;
74900;SDS011;63461;51.416;6.758;2024-02-21T10:32:55;10.67;;;2.60;;
74900;SDS011;63461;51.416;6.758;2024-02-21T10:35:30;8.83;;;2.40;;
74900;SDS011;63461;51.416;6.758;2024-02-21T10:37:57;10.87;;;2.53;;
74900;SDS011;63461;51.416;6.758;2024-02-21T10:40:27;6.17;;;2.33;;
74900;SDS011;63461;51.416;6.758;2024-02-21T10:42:58;9.60;;;3.20;;
74900;SDS011;63461;51.416;6.758;2024-02-21T10:45:28;11.07;;;2.67;;
74900;SDS011;63461;51.416;6.758;2024-02-21T10:47:55;10.43;;;3.57;;
74900;SDS011;63461;51.416;6.758;2024-02-21T10:50:24;9.27;;;2.83;;
74900;SDS011;63461;51.416;6.758;2024-02-21T10:53:06;8.50;;;2.63;;
74900;SDS011;63461;51.416;6.758;2024-02-21T10:55:44;10.23;;;2.70;;
74900;SDS011;63461;51.416;6.758;2024-02-21T10:58:21;9.80;;;2.70;;
74900;SDS011;63461;51.416;6.758;2024-02-21T11:00:48;7.67;;;2.77;;
74900;SDS011;63461;51.416;6.758;2024-02-21T11:03:15;7.73;;;2.97;;
74900;SDS011;63461;51.416;6.758;2024-02-21T11:05:41;9.23;;;2.93;;
74900;SDS011;63461;51.416;6.758;2024-02-21T11:08:10;8.00;;;2.77;;
74900;SDS011;63461;51.416;6.758;2024-02-21T11:10:37;6.73;;;2.87;;
74900;SDS011;63461;51.416;6.758;2024-02-21T11:13:09;7.00;;;2.50;;
74900;SDS011;63461;51.416;6.758;2024-02-21T11:15:36;6.50;;;2.53;;
74900;SDS011;63461;51.416;6.758;2024-02-21T11:18:02;6.63;;;2.30;;
74900;SDS011;63461;51.416;6.758;2024-02-21T11:20:34;7.17;;;2.10;;
74900;SDS011;63461;51.416;6.758;2024-02-21T11:23:01;7.10;;;2.23;;
74900;SDS011;63461;51.416;6.758;2024-02-21T11:25:27;10.20;;;3.00;;
74900;SDS011;63461;51.416;6.758;2024-02-21T11:28:00;6.80;;;2.13;;
74900;SDS011;63461;51.416;6.758;2024-02-21T11:30:27;9.13;;;2.40;;
74900;SDS011;63461;51.416;6.758;2024-02-21T11:32:59;12.87;;;2.70;;
74900;SDS011;63461;51.416;6.758;2024-02-21T11:35:35;11.83;;;2.70;;
74900;SDS011;63461;51.416;6.758;2024-02-21T11:38:35;6.53;;;2.80;;
74900;SDS011;63461;51.416;6.758;2024-02-21T11:40:53;9.53;;;2.50;;
74900;SDS011;63461;51.416;6.758;2024-02-21T11:43:19;8.13;;;2.43;;
74900;SDS011;63461;51.416;6.758;2024-02-21T11:45:45;11.40;;;2.83;;
74900;SDS011;63461;51.416;6.758;2024-02-21T11:48:11;5.93;;;2.67;;
74900;SDS011;63461;51.416;6.758;2024-02-21T11:50:37;9.50;;;2.33;;
74900;SDS011;63461;51.416;6.758;2024-02-21T11:53:05;11.97;;;3.03;;
74900;SDS011;63461;51.416;6.758;2024-02-21T11:55:30;6.67;;;2.53;;
74900;SDS011;63461;51.416;6.758;2024-02-21T11:57:56;9.00;;;2.73;;
74900;SDS011;63461;51.416;6.758;2024-02-21T12:00:22;9.47;;;2.80;;
74900;SDS011;63461;51.416;6.758;2024-02-21T12:02:51;7.67;;;2.90;;
74900;SDS011;63461;51.416;6.758;2024-02-21T12:05:20;11.00;;;2.87;;
74900;SDS011;63461;51.416;6.758;2024-02-21T12:07:46;9.13;;;2.87;;
74900;SDS011;63461;51.416;6.758;2024-02-21T12:10:12;12.43;;;3.40;;
74900;SDS011;63461;51.416;6.758;2024-02-21T12:12:38;11.03;;;3.07;;
74900;SDS011;63461;51.416;6.758;2024-02-21T12:15:05;8.27;;;2.60;;
74900;SDS011;63461;51.416;6.758;2024-02-21T12:17:35;7.10;;;2.63;;
74900;SDS011;63461;51.416;6.758;2024-02-21T12:20:05;11.07;;;3.37;;
74900;SDS011;63461;51.416;6.758;2024-02-21T12:22:37;10.07;;;2.70;;
74900;SDS011;63461;51.416;6.758;2024-02-21T12:25:04;9.70;;;2.93;;
74900;SDS011;63461;51.416;6.758;2024-02-21T12:27:40;11.00;;;2.83;;
74900;SDS011;63461;51.416;6.758;2024-02-21T12:30:06;8.67;;;2.53;;
74900;SDS011;63461;51.416;6.758;2024-02-21T12:32:35;9.60;;;3.30;;
74900;SDS011;63461;51.416;6.758;2024-02-21T12:35:02;12.70;;;2.97;;
74900;SDS011;63461;51.416;6.758;2024-02-21T12:37:28;11.33;;;3.13;;
74900;SDS011;63461;51.416;6.758;2024-02-21T12:39:54;9.23;;;2.60;;
74900;SDS011;63461;51.416;6.758;2024-02-21T12:42:19;9.70;;;2.83;;
74900;SDS011;63461;51.416;6.758;2024-02-21T12:44:46;6.50;;;2.77;;
74900;SDS011;63461;51.416;6.758;2024-02-21T12:47:12;9.53;;;2.40;;
74900;SDS011;63461;51.416;6.758;2024-02-21T12:49:37;9.23;;;2.50;;
74900;SDS011;63461;51.416;6.758;2024-02-21T12:52:03;10.40;;;2.93;;
74900;SDS011;63461;51.416;6.758;2024-02-21T12:54:29;9.40;;;2.60;;
74900;SDS011;63461;51.416;6.758;2024-02-21T12:56:56;7.53;;;2.40;;
74900;SDS011;63461;51.416;6.758;2024-02-21T12:59:22;8.93;;;2.73;;
74900;SDS011;63461;51.416;6.758;2024-02-21T13:01:48;12.10;;;2.90;;
74900;SDS011;63461;51.416;6.758;2024-02-21T13:04:14;15.37;;;2.40;;
74900;SDS011;63461;51.416;6.758;2024-02-21T13:06:39;6.47;;;2.20;;
74900;SDS011;63461;51.416;6.758;2024-02-21T13:09:05;8.13;;;2.50;;
74900;SDS011;63461;51.416;6.758;2024-02-21T13:11:36;9.50;;;2.40;;
74900;SDS011;63461;51.416;6.758;2024-02-21T13:14:03;9.90;;;2.27;;
74900;SDS011;63461;51.416;6.758;2024-02-21T13:16:28;8.47;;;2.13;;
74900;SDS011;63461;51.416;6.758;2024-02-21T13:18:54;8.77;;;2.13;;
74900;SDS011;63461;51.416;6.758;2024-02-21T13:21:20;8.20;;;2.30;;
74900;SDS011;63461;51.416;6.758;2024-02-21T13:23:46;13.70;;;2.47;;
74900;SDS011;63461;51.416;6.758;2024-02-21T13:26:12;7.63;;;2.00;;
74900;SDS011;63461;51.416;6.758;2024-02-21T13:28:39;8.70;;;2.40;;
74900;SDS011;63461;51.416;6.758;2024-02-21T13:31:05;5.33;;;2.33;;
74900;SDS011;63461;51.416;6.758;2024-02-21T13:33:31;12.67;;;2.47;;
74900;SDS011;63461;51.416;6.758;2024-02-21T13:35:57;5.00;;;2.10;;
74900;SDS011;63461;51.416;6.758;2024-02-21T13:38:23;7.53;;;2.03;;
74900;SDS011;63461;51.416;6.758;2024-02-21T13:40:49;7.53;;;2.13;;
74900;SDS011;63461;51.416;6.758;2024-02-21T13:43:15;10.80;;;2.60;;
74900;SDS011;63461;51.416;6.758;2024-02-21T13:45:45;9.80;;;2.07;;
74900;SDS011;63461;51.416;6.758;2024-02-21T13:48:21;7.53;;;2.30;;
74900;SDS011;63461;51.416;6.758;2024-02-21T13:50:47;21.20;;;7.33;;
74900;SDS011;63461;51.416;6.758;2024-02-21T13:53:13;19.90;;;4.80;;
74900;SDS011;63461;51.416;6.758;2024-02-21T13:55:39;10.13;;;3.43;;
74900;SDS011;63461;51.416;6.758;2024-02-21T13:58:05;9.80;;;3.20;;
74900;SDS011;63461;51.416;6.758;2024-02-21T14:00:31;10.47;;;3.20;;
74900;SDS011;63461;51.416;6.758;2024-02-21T14:02:59;12.43;;;3.47;;
74900;SDS011;63461;51.416;6.758;2024-02-21T14:05:26;10.20;;;2.57;;
74900;SDS011;63461;51.416;6.758;2024-02-21T14:07:52;9.00;;;2.47;;
74900;SDS011;63461;51.416;6.758;2024-02-21T14:10:20;11.60;;;2.70;;
74900;SDS011;63461;51.416;6.758;2024-02-21T14:12:46;6.10;;;2.50;;
74900;SDS011;63461;51.416;6.758;2024-02-21T14:15:13;10.97;;;2.40;;
74900;SDS011;63461;51.416;6.758;2024-02-21T14:17:39;7.53;;;2.30;;
74900;SDS011;63461;51.416;6.758;2024-02-21T14:20:08;12.63;;;2.77;;
74900;SDS011;63461;51.416;6.758;2024-02-21T14:22:35;9.30;;;2.60;;
74900;SDS011;63461;51.416;6.758;2024-02-21T14:25:03;10.03;;;2.40;;
74900;SDS011;63461;51.416;6.758;2024-02-21T14:27:32;6.63;;;2.60;;
74900;SDS011;63461;51.416;6.758;2024-02-21T14:29:58;9.17;;;2.40;;
74900;SDS011;63461;51.416;6.758;2024-02-21T14:32:23;9.53;;;2.40;;
74900;SDS011;63461;51.416;6.758;2024-02-21T14:34:49;8.57;;;2.87;;
74900;SDS011;63461;51.416;6.758;2024-02-21T14:37:15;10.33;;;2.37;;
74900;SDS011;63461;51.416;6.758;2024-02-21T14:39:41;6.93;;;2.17;;